createdAt,value
2023-04-23T00:01:02.334Z,96535.38
2023-04-23T00:03:10.515Z,96527.88
2023-04-23T00:05:17.998Z,96531.09
2023-04-23T00:07:21.969Z,96524.97
2023-04-23T00:09:26.365Z,96522.53
2023-04-23T00:11:29.789Z,96526.25
2023-04-23T00:13:34.256Z,96533.41
2023-04-23T00:15:38.200Z,96526.69
2023-04-23T00:17:41.004Z,96526.09
2023-04-23T00:19:43.852Z,96522.84
2023-04-23T00:21:46.648Z,96519.84
2023-04-23T00:23:49.472Z,96510.47
2023-04-23T00:25:52.241Z,96520.88
2023-04-23T00:27:55.037Z,96521.94
2023-04-23T00:29:59.132Z,96515.88
2023-04-23T00:32:03.306Z,96511.81
2023-04-23T00:34:06.150Z,96513.44
2023-04-23T00:36:09.734Z,96508.69
2023-04-23T00:38:12.521Z,96514.47
2023-04-23T00:40:15.718Z,96514.25
2023-04-23T00:42:18.534Z,96513.44
2023-04-23T00:44:21.280Z,96518.75
2023-04-23T00:46:26.176Z,96511.47
2023-04-23T00:48:30.109Z,96516.56
2023-04-23T00:50:32.885Z,96517.59
2023-04-23T00:52:36.010Z,96513.91
2023-04-23T00:54:38.982Z,96526.16
2023-04-23T00:56:41.925Z,96523.97
2023-04-23T00:58:45.453Z,96521.88
2023-04-23T01:00:49.157Z,96511.47
2023-04-23T01:02:54.881Z,96518.03
2023-04-23T01:04:59.424Z,96522.94
2023-04-23T01:07:02.775Z,96521.88
2023-04-23T01:09:06.414Z,96513.66
2023-04-23T01:11:09.216Z,96516.09
2023-04-23T01:13:16.132Z,96515.06
2023-04-23T01:15:19.051Z,96512.63
2023-04-23T01:17:22.858Z,96517.13
2023-04-23T01:19:27.183Z,96503.03
2023-04-23T01:21:32.432Z,96502.22
2023-04-23T01:23:36.760Z,96508.69
2023-04-23T01:25:40.052Z,96509.38
2023-04-23T01:27:43.351Z,96510.19
2023-04-23T01:29:46.945Z,96505.69
2023-04-23T01:31:50.985Z,96511.34
2023-04-23T01:33:55.167Z,96507.66
2023-04-23T01:35:58.542Z,96513.56
2023-04-23T01:38:03.648Z,96507.31
2023-04-23T01:40:09.721Z,96502.69
2023-04-23T01:42:12.644Z,96507.84
2023-04-23T01:44:15.504Z,96501.72
2023-04-23T01:46:18.529Z,96508.66
2023-04-23T01:48:21.491Z,96504.16
2023-04-23T01:50:26.154Z,96503.34
2023-04-23T01:52:29.144Z,96504.16
2023-04-23T01:54:32.068Z,96508.66
2023-04-23T01:56:36.413Z,96504.84
2023-04-23T01:58:39.244Z,96504.25
2023-04-23T02:00:42.056Z,96505.72
2023-04-23T02:02:45.704Z,96497.50
2023-04-23T02:04:49.397Z,96503.44
2023-04-23T02:06:52.812Z,96506.69
2023-04-23T02:08:55.768Z,96511.19
2023-04-23T02:10:58.595Z,96512.25
2023-04-23T02:13:03.390Z,96514.09
2023-04-23T02:15:08.450Z,96514.91
2023-04-23T02:17:12.494Z,96504.25
2023-04-23T02:19:16.878Z,96505.66
2023-04-23T02:21:19.755Z,96505.41
2023-04-23T02:23:22.629Z,96494.53
2023-04-23T02:25:25.371Z,96491.88
2023-04-23T02:27:28.178Z,96492.47
2023-04-23T02:29:32.400Z,96492.22
2023-04-23T02:31:35.308Z,96486.09
2023-04-23T02:33:38.204Z,96486.56
2023-04-23T02:35:41.156Z,96485.41
2023-04-23T02:37:43.916Z,96482.75
2023-04-23T02:39:46.660Z,96474.75
2023-04-23T02:41:49.498Z,96469.44
2023-04-23T02:43:52.277Z,96467.81
2023-04-23T02:45:56.514Z,96470.47
2023-04-23T02:47:59.349Z,96460.41
2023-04-23T02:50:05.766Z,96459.59
2023-04-23T02:52:08.663Z,96460.19
2023-04-23T02:54:11.942Z,96455.31
2023-04-23T02:56:14.805Z,96450.59
2023-04-23T02:58:17.578Z,96446.88
2023-04-23T03:00:20.632Z,96450.13
2023-04-23T03:02:25.028Z,96447.69
2023-04-23T03:04:28.130Z,96457.88
2023-04-23T03:06:31.854Z,96443.53
2023-04-23T03:08:34.900Z,96444.34
2023-04-23T03:10:37.701Z,96446.81
2023-04-23T03:12:40.627Z,96441.47
2023-04-23T03:14:43.597Z,96442.50
2023-04-23T03:16:46.476Z,96445.16
2023-04-23T03:18:50.743Z,96440.88
2023-04-23T03:20:53.616Z,96437.78
2023-04-23T03:22:56.879Z,96439.41
2023-04-23T03:24:59.733Z,96441.25
2023-04-23T03:27:02.588Z,96441.81
2023-04-23T03:29:06.265Z,96438.13
2023-04-23T03:31:09.289Z,96439.97
2023-04-23T03:33:12.174Z,96429.56
2023-04-23T03:35:16.667Z,96430.38
2023-04-23T03:37:19.482Z,96427.47
2023-04-23T03:39:22.222Z,96429.09
2023-04-23T03:41:25.084Z,96429.09
2023-04-23T03:43:27.939Z,96428.06
2023-04-23T03:45:31.995Z,96429.91
2023-04-23T03:47:34.919Z,96426.22
2023-04-23T03:49:38.221Z,96430.50
2023-04-23T03:51:42.329Z,96427.81
2023-04-23T03:53:46.048Z,96434.75
2023-04-23T03:55:48.953Z,96432.47
2023-04-23T03:57:51.779Z,96434.91
2023-04-23T03:59:54.566Z,96437.81
2023-04-23T04:01:58.609Z,96430.50
2023-04-23T04:04:01.517Z,96429.91
2023-04-23T04:06:04.827Z,96427.00
2023-04-23T04:08:09.088Z,96420.31
2023-04-23T04:10:12.358Z,96414.41
2023-04-23T04:12:15.086Z,96419.72
2023-04-23T04:14:17.834Z,96423.78
2023-04-23T04:16:20.649Z,96416.59
2023-04-23T04:18:23.457Z,96424.59
2023-04-23T04:20:28.804Z,96425.41
2023-04-23T04:22:32.039Z,96419.03
2023-04-23T04:24:36.412Z,96417.19
2023-04-23T04:26:39.730Z,96424.13
2023-04-23T04:28:42.526Z,96417.19
2023-04-23T04:30:45.604Z,96418.81
2023-04-23T04:32:50.831Z,96421.47
2023-04-23T04:34:53.890Z,96416.13
2023-04-23T04:36:57.195Z,96417.56
2023-04-23T04:39:00.733Z,96422.06
2023-04-23T04:41:05.112Z,96416.94
2023-04-23T04:43:07.889Z,96415.69
2023-04-23T04:45:11.693Z,96408.75
2023-04-23T04:47:16.235Z,96400.97
2023-04-23T04:49:19.525Z,96397.50
2023-04-23T04:51:22.840Z,96398.78
2023-04-23T04:53:25.615Z,96400.16
2023-04-23T04:55:28.430Z,96392.19
2023-04-23T04:57:32.657Z,96393.81
2023-04-23T04:59:35.812Z,96393.81
2023-04-23T05:01:39.066Z,96395.47
2023-04-23T05:03:42.003Z,96400.16
2023-04-23T05:05:45.080Z,96395.66
2023-04-23T05:07:47.809Z,96393.00
2023-04-23T05:09:50.709Z,96397.06
2023-04-23T05:11:53.638Z,96392.56
2023-04-23T05:13:57.965Z,96386.44
2023-04-23T05:16:01.319Z,96385.97
2023-04-23T05:18:05.538Z,96387.59
2023-04-23T05:20:10.959Z,96382.03
2023-04-23T05:22:13.802Z,96383.88
2023-04-23T05:24:16.538Z,96381.78
2023-04-23T05:26:19.370Z,96381.78
2023-04-23T05:28:22.240Z,96382.59
2023-04-23T05:30:26.690Z,96380.50
2023-04-23T05:32:29.648Z,96376.59
2023-04-23T05:34:32.444Z,96386.22
2023-04-23T05:36:35.199Z,96384.13
2023-04-23T05:38:38.067Z,96375.09
2023-04-23T05:40:40.900Z,96375.91
2023-04-23T05:42:43.829Z,96376.72
2023-04-23T05:44:46.709Z,96377.50
2023-04-23T05:46:50.846Z,96366.63
2023-04-23T05:48:53.705Z,96377.88
2023-04-23T05:50:56.494Z,96365.97
2023-04-23T05:52:59.262Z,96363.06
2023-04-23T05:55:02.299Z,96364.69
2023-04-23T05:57:05.612Z,96357.50
2023-04-23T05:59:08.424Z,96358.88
2023-04-23T06:01:11.334Z,96353.31
2023-04-23T06:03:16.428Z,96356.59
2023-04-23T06:05:19.458Z,96356.34
2023-04-23T06:07:22.624Z,96355.88
2023-04-23T06:09:25.506Z,96346.84
2023-04-23T06:11:28.650Z,96349.41
2023-04-23T06:13:31.548Z,96344.16
2023-04-23T06:15:34.319Z,96344.50
2023-04-23T06:17:37.451Z,96346.13
2023-04-23T06:19:42.896Z,96346.72
2023-04-23T06:21:45.731Z,96349.94
2023-04-23T06:23:48.648Z,96355.84
2023-04-23T06:25:51.375Z,96346.81
2023-04-23T06:27:54.484Z,96355.38
2023-04-23T06:29:57.293Z,96351.66
2023-04-23T06:32:04.524Z,96348.09
2023-04-23T06:34:07.349Z,96352.63
2023-04-23T06:36:11.753Z,96356.31
2023-04-23T06:38:14.539Z,96351.00
2023-04-23T06:40:17.432Z,96351.22
2023-04-23T06:42:20.467Z,96346.94
2023-04-23T06:44:23.206Z,96348.78
2023-04-23T06:46:26.151Z,96342.63
2023-04-23T06:48:29.091Z,96335.69
2023-04-23T06:50:31.771Z,96339.66
2023-04-23T06:52:36.489Z,96332.22
2023-04-23T06:54:39.726Z,96342.06
2023-04-23T06:56:42.828Z,96331.78
2023-04-23T06:58:45.546Z,96340.91
2023-04-23T07:00:48.410Z,96337.28
2023-04-23T07:02:51.857Z,96327.81
2023-04-23T07:04:55.051Z,96331.28
2023-04-23T07:06:57.899Z,96327.31
2023-04-23T07:09:02.326Z,96321.53
2023-04-23T07:11:05.329Z,96322.72
2023-04-23T07:13:08.225Z,96329.19
2023-04-23T07:15:12.057Z,96329.75
2023-04-23T07:17:14.864Z,96327.09
2023-04-23T07:19:17.661Z,96324.66
2023-04-23T07:21:20.747Z,96327.09
2023-04-23T07:23:23.622Z,96328.13
2023-04-23T07:25:28.212Z,96337.28
2023-04-23T07:27:31.115Z,96324.78
2023-04-23T07:29:37.085Z,96320.81
2023-04-23T07:31:41.712Z,96330.19
2023-04-23T07:33:44.873Z,96320.81
2023-04-23T07:35:51.020Z,96320.47
2023-04-23T07:37:56.082Z,96318.50
2023-04-23T07:40:00.788Z,96317.38
2023-04-23T07:42:06.561Z,96307.78
2023-04-23T07:44:09.492Z,96310.28
2023-04-23T07:46:14.956Z,96319.47
2023-04-23T07:48:18.360Z,96316.22
2023-04-23T07:50:21.725Z,96307.78
2023-04-23T07:52:26.570Z,96304.06
2023-04-23T07:54:29.701Z,96292.59
2023-04-23T07:56:36.314Z,96297.19
2023-04-23T07:58:42.951Z,96298.81
2023-04-23T08:00:46.237Z,96300.44
2023-04-23T08:02:49.350Z,96295.09
2023-04-23T08:04:52.385Z,96298.34
2023-04-23T08:06:55.308Z,96294.66
2023-04-23T08:08:58.396Z,96291.38
2023-04-23T08:11:01.122Z,96296.72
2023-04-23T08:13:04.328Z,96297.31
2023-04-23T08:15:09.645Z,96297.31
2023-04-23T08:17:12.622Z,96296.72
2023-04-23T08:19:15.395Z,96304.94
2023-04-23T08:21:18.589Z,96300.91
2023-04-23T08:23:21.527Z,96297.19
2023-04-23T08:25:25.090Z,96299.06
2023-04-23T08:27:27.899Z,96297.69
2023-04-23T08:29:30.854Z,96303.00
2023-04-23T08:31:35.933Z,96293.16
2023-04-23T08:33:38.923Z,96298.50
2023-04-23T08:35:42.130Z,96300.09
2023-04-23T08:37:45.300Z,96292.69
2023-04-23T08:39:49.052Z,96293.25
2023-04-23T08:41:56.114Z,96282.03
2023-04-23T08:44:13.639Z,96293.00
2023-04-23T08:46:19.543Z,96298.69
2023-04-23T08:48:24.219Z,96301.69
2023-04-23T08:50:28.022Z,96299.00
2023-04-23T08:52:35.170Z,96292.06
2023-04-23T08:54:42.036Z,96288.34
2023-04-23T08:56:46.603Z,96289.16
2023-04-23T08:58:51.958Z,96291.00
2023-04-23T09:00:56.179Z,96293.78
2023-04-23T09:02:59.822Z,96290.06
2023-04-23T09:05:06.044Z,96282.66
2023-04-23T09:07:11.339Z,96279.97
2023-04-23T09:09:17.481Z,96282.41
2023-04-23T09:11:21.877Z,96277.88
2023-04-23T09:13:24.728Z,96280.31
2023-04-23T09:15:29.461Z,96268.34
2023-04-23T09:17:37.054Z,96264.19
2023-04-23T09:19:41.343Z,96266.91
2023-04-23T09:21:47.444Z,96259.47
2023-04-23T09:23:54.089Z,96262.72
2023-04-23T09:25:59.266Z,96261.44
2023-04-23T09:28:02.502Z,96268.16
2023-04-23T09:30:07.461Z,96269.50
2023-04-23T09:32:11.262Z,96266.84
2023-04-23T09:34:16.423Z,96257.22
2023-04-23T09:36:22.327Z,96265.78
2023-04-23T09:38:26.734Z,96260.47
2023-04-23T09:40:32.736Z,96258.59
2023-04-23T09:42:39.835Z,96262.44
2023-04-23T09:44:45.875Z,96247.69
2023-04-23T09:46:52.018Z,96256.59
2023-04-23T09:48:59.540Z,96257.16
2023-04-23T09:51:03.923Z,96252.31
2023-04-23T09:53:07.598Z,96254.50
2023-04-23T09:55:12.234Z,96256.09
2023-04-23T09:57:15.218Z,96255.06
2023-04-23T09:59:29.417Z,96250.06
2023-04-23T10:01:46.892Z,96242.38
2023-04-23T10:03:54.558Z,96243.75
2023-04-23T10:06:01.777Z,96246.97
2023-04-23T10:08:07.544Z,96239.22
2023-04-23T10:10:12.359Z,96239.22
2023-04-23T10:14:22.168Z,96237.22
2023-04-23T10:16:32.846Z,96241.00
2023-04-23T10:18:41.636Z,96235.75
2023-04-23T10:20:44.561Z,96224.56
2023-04-23T10:22:48.000Z,96228.13
2023-04-23T10:24:56.022Z,96219.72
2023-04-23T10:27:02.826Z,96216.56
2023-04-23T10:29:06.355Z,96216.41
2023-04-23T10:31:10.829Z,96212.50
2023-04-23T10:33:26.435Z,96220.66
2023-04-23T10:35:32.785Z,96219.66
2023-04-23T10:37:36.148Z,96223.94
2023-04-23T10:39:39.742Z,96222.06
2023-04-23T10:41:44.242Z,96211.13
2023-04-23T10:43:48.772Z,96209.34
2023-04-23T10:45:51.804Z,96211.50
2023-04-23T10:47:56.504Z,96207.78
2023-04-23T10:50:19.017Z,96198.22
2023-04-23T10:52:24.594Z,96204.97
2023-04-23T10:54:32.927Z,96204.81
2023-04-23T10:56:35.714Z,96196.03
2023-04-23T10:58:51.857Z,96187.75
2023-04-23T11:00:57.084Z,96189.94
2023-04-23T11:02:59.997Z,96179.81
2023-04-23T11:05:07.169Z,96181.97
2023-04-23T11:07:12.057Z,96168.09
2023-04-23T11:09:32.156Z,96167.38
2023-04-23T11:11:41.217Z,96169.53
2023-04-23T11:13:55.481Z,96164.47
2023-04-23T11:16:15.222Z,96161.78
2023-04-23T11:18:18.233Z,96157.25
2023-04-23T11:20:22.076Z,96158.06
2023-04-23T11:22:24.896Z,96157.03
2023-04-23T11:24:29.728Z,96151.69
2023-04-23T11:26:32.608Z,96157.03
2023-04-23T11:28:38.926Z,96149.59
2023-04-23T11:30:43.199Z,96155.47
2023-04-23T11:32:48.885Z,96155.22
2023-04-23T11:34:53.365Z,96147.19
2023-04-23T11:36:57.572Z,96158.19
2023-04-23T11:39:02.948Z,96159.84
2023-04-23T11:41:06.709Z,96160.69
2023-04-23T11:43:09.480Z,96162.31
2023-04-23T11:45:17.126Z,96150.81
2023-04-23T11:47:21.373Z,96149.50
2023-04-23T11:49:24.270Z,96140.16
2023-04-23T11:51:27.794Z,96144.75
2023-04-23T11:53:30.774Z,96140.75
2023-04-23T11:55:33.640Z,96136.22
2023-04-23T11:57:37.356Z,96130.34
2023-04-23T11:59:40.424Z,96133.31
2023-04-23T12:01:47.901Z,96136.53
2023-04-23T12:03:52.483Z,96135.25
2023-04-23T12:05:56.091Z,96148.91
2023-04-23T12:08:09.822Z,96135.53
2023-04-23T12:10:18.587Z,96129.38
2023-04-23T12:12:21.822Z,96137.69
2023-04-23T12:14:29.878Z,96131.31
2023-04-23T12:16:37.609Z,96122.50
2023-04-23T12:18:44.189Z,96124.91
2023-04-23T12:20:48.460Z,96126.25
2023-04-23T12:22:51.379Z,96123.34
2023-04-23T12:24:54.629Z,96116.94
2023-04-23T12:27:00.490Z,96115.59
2023-04-23T12:29:03.822Z,96120.16
2023-04-23T12:31:10.262Z,96117.00
2023-04-23T12:33:14.873Z,96106.28
2023-04-23T12:35:17.729Z,96110.00
2023-04-23T12:37:25.353Z,96100.09
2023-04-23T12:39:31.026Z,96097.69
2023-04-23T12:41:34.035Z,96090.72
2023-04-23T12:43:40.412Z,96093.94
2023-04-23T12:45:43.712Z,96100.94
2023-04-23T12:47:46.849Z,96100.69
2023-04-23T12:49:53.189Z,96102.28
2023-04-23T12:52:01.059Z,96100.41
2023-04-23T12:54:08.292Z,96099.88
2023-04-23T12:56:11.004Z,96095.88
2023-04-23T12:58:13.962Z,96102.59
2023-04-23T13:00:17.402Z,96103.66
2023-04-23T13:02:20.944Z,96100.97
2023-04-23T13:04:24.025Z,96102.59
2023-04-23T13:06:27.082Z,96102.34
2023-04-23T13:08:29.915Z,96096.19
2023-04-23T13:10:34.422Z,96101.53
2023-04-23T13:12:37.280Z,96098.59
2023-04-23T13:14:40.120Z,96094.31
2023-04-23T13:16:43.522Z,96104.75
2023-04-23T13:18:46.386Z,96098.06
2023-04-23T13:20:49.535Z,96097.25
2023-04-23T13:22:52.482Z,96098.34
2023-04-23T13:24:56.226Z,96091.91
2023-04-23T13:27:01.476Z,96085.75
2023-04-23T13:29:04.404Z,96086.81
2023-04-23T13:31:07.524Z,96087.09
2023-04-23T13:33:10.542Z,96082.53
2023-04-23T13:35:14.544Z,96081.19
2023-04-23T13:37:17.544Z,96084.66
2023-04-23T13:39:21.413Z,96078.75
2023-04-23T13:41:24.048Z,96077.41
2023-04-23T13:43:28.354Z,96079.00
2023-04-23T13:45:31.426Z,96069.88
2023-04-23T13:47:34.971Z,96071.75
2023-04-23T13:49:37.840Z,96075.75
2023-04-23T13:51:40.685Z,96065.56
2023-04-23T13:53:43.841Z,96065.03
2023-04-23T13:55:46.866Z,96074.94
2023-04-23T13:57:49.916Z,96074.94
2023-04-23T13:59:55.590Z,96076.22
2023-04-23T14:01:58.484Z,96074.09
2023-04-23T14:04:01.476Z,96066.84
2023-04-23T14:06:04.418Z,96074.63
2023-04-23T14:08:07.385Z,96066.84
2023-04-23T14:10:11.215Z,96066.84
2023-04-23T14:12:14.253Z,96055.63
2023-04-23T14:14:17.997Z,96039.81
2023-04-23T14:16:22.230Z,96051.06
2023-04-23T14:18:25.305Z,96033.88
2023-04-23T14:20:28.185Z,96035.47
2023-04-23T14:22:31.241Z,96028.00
2023-04-23T14:24:36.111Z,96014.63
2023-04-23T14:26:48.759Z,96015.69
2023-04-23T14:28:53.160Z,96008.69
2023-04-23T14:30:57.513Z,96008.69
2023-04-23T14:33:01.774Z,95998.00
2023-04-23T14:35:05.360Z,95993.47
2023-04-23T14:37:08.142Z,95986.50
2023-04-23T14:39:12.216Z,95983.59
2023-04-23T14:41:15.090Z,95984.94
2023-04-23T14:43:18.014Z,95987.88
2023-04-23T14:45:20.931Z,95986.84
2023-04-23T14:47:23.668Z,95994.88
2023-04-23T14:49:27.968Z,95984.44
2023-04-23T14:51:31.279Z,95995.97
2023-04-23T14:53:37.600Z,95989.56
2023-04-23T14:55:43.552Z,95989.31
2023-04-23T14:57:46.342Z,95994.66
2023-04-23T14:59:49.510Z,96000.81
2023-04-23T15:01:52.739Z,95995.47
2023-04-23T15:03:56.292Z,95999.19
2023-04-23T15:06:01.495Z,96003.47
2023-04-23T15:08:04.413Z,96013.13
2023-04-23T15:10:09.389Z,96008.56
2023-04-23T15:12:43.462Z,96000.28
2023-04-23T15:14:46.547Z,96012.84
2023-04-23T15:16:50.204Z,96008.31
2023-04-23T15:18:53.231Z,96022.25
2023-04-23T15:20:56.064Z,96009.91
2023-04-23T15:23:00.197Z,96018.47
2023-04-23T15:25:03.102Z,96020.59
2023-04-23T15:27:06.281Z,96024.03
2023-04-23T15:29:10.105Z,96037.69
2023-04-23T15:31:13.138Z,96038.47
2023-04-23T15:33:17.760Z,96053.16
2023-04-23T15:35:20.544Z,96071.06
2023-04-23T15:37:24.307Z,96073.41
2023-04-23T15:39:29.409Z,96099.00
2023-04-23T15:41:32.362Z,96112.88
2023-04-23T15:43:35.311Z,96108.81
2023-04-23T15:45:38.293Z,96140.53
2023-04-23T15:47:41.996Z,96154.28
2023-04-23T15:49:47.904Z,96178.50
2023-04-23T15:51:50.750Z,96192.53
2023-04-23T15:53:53.826Z,96205.78
2023-04-23T15:55:58.009Z,96208.34
2023-04-23T15:58:01.779Z,96215.41
2023-04-23T16:00:06.052Z,96222.00
2023-04-23T16:02:09.561Z,96221.94
2023-04-23T16:04:12.890Z,96232.31
2023-04-23T16:06:16.896Z,96242.44
2023-04-23T16:08:19.635Z,96256.28
2023-04-23T16:10:22.489Z,96265.75
2023-04-23T16:12:26.762Z,96265.25
2023-04-23T16:14:29.569Z,96273.66
2023-04-23T16:16:32.617Z,96277.28
2023-04-23T16:18:35.491Z,96286.53
2023-04-23T16:20:38.373Z,96293.06
2023-04-23T16:22:41.219Z,96297.72
2023-04-23T16:24:44.177Z,96305.66
2023-04-23T16:26:46.997Z,96298.97
2023-04-23T16:29:05.728Z,96302.00
2023-04-23T16:31:15.096Z,96305.84
2023-04-23T16:33:17.935Z,96305.84
2023-04-23T16:35:20.710Z,96287.75
2023-04-23T16:37:24.873Z,96269.09
2023-04-23T16:39:28.114Z,96256.00
2023-04-23T16:41:36.556Z,96224.25
2023-04-23T16:43:41.041Z,96200.66
2023-04-23T16:45:46.010Z,96213.91
2023-04-23T16:47:49.189Z,96229.09
2023-04-23T16:49:53.116Z,96221.66
2023-04-23T16:51:56.476Z,96228.72
2023-04-23T16:53:59.638Z,96233.78
2023-04-23T16:56:05.211Z,96239.69
2023-04-23T16:58:07.961Z,96247.19
2023-04-23T17:00:12.850Z,96235.97
2023-04-23T17:02:19.358Z,96229.59
2023-04-23T17:04:22.691Z,96229.09
2023-04-23T17:06:31.558Z,96222.50
2023-04-23T17:08:40.075Z,96225.38
2023-04-23T17:10:43.149Z,96249.06
2023-04-23T17:12:46.217Z,96251.31
2023-04-23T17:14:49.336Z,96250.75
2023-04-23T17:16:52.481Z,96232.06
2023-04-23T17:18:56.911Z,96229.41
2023-04-23T17:20:59.955Z,96224.88
2023-04-23T17:23:02.986Z,96223.03
2023-04-23T17:25:07.173Z,96218.28
2023-04-23T17:27:10.060Z,96222.56
2023-04-23T17:29:15.058Z,96217.44
2023-04-23T17:31:19.141Z,96223.63
2023-04-23T17:33:22.130Z,96218.75
2023-04-23T17:35:28.853Z,96214.16
2023-04-23T17:37:33.632Z,96222.41
2023-04-23T17:39:37.049Z,96226.66
2023-04-23T17:41:39.884Z,96234.09
2023-04-23T17:43:45.960Z,96233.31
2023-04-23T17:45:51.474Z,96238.03
2023-04-23T17:47:55.034Z,96235.84
2023-04-23T17:49:57.811Z,96234.56
2023-04-23T17:52:02.582Z,96236.19
2023-04-23T17:54:07.719Z,96232.94
2023-04-23T17:56:13.673Z,96237.72
2023-04-23T17:58:19.230Z,96246.50
2023-04-23T18:00:22.524Z,96244.09
2023-04-23T18:02:26.967Z,96255.25
2023-04-23T18:04:30.704Z,96253.63
2023-04-23T18:06:35.720Z,96250.84
2023-04-23T18:08:42.049Z,96252.47
2023-04-23T18:10:47.110Z,96258.16
2023-04-23T18:12:50.095Z,96254.75
2023-04-23T18:14:53.015Z,96262.75
2023-04-23T18:16:56.032Z,96264.38
2023-04-23T18:18:58.815Z,96264.38
2023-04-23T18:21:01.862Z,96274.78
2023-04-23T18:23:04.861Z,96273.50
2023-04-23T18:25:10.340Z,96283.34
2023-04-23T18:27:13.146Z,96278.81
2023-04-23T18:29:16.175Z,96276.75
2023-04-23T18:31:19.016Z,96274.09
2023-04-23T18:33:30.634Z,96272.22
2023-04-23T18:35:36.125Z,96285.31
2023-04-23T18:37:44.016Z,96278.38
2023-04-23T18:39:47.387Z,96277.13
2023-04-23T18:41:51.841Z,96276.56
2023-04-23T18:43:54.982Z,96280.59
2023-04-23T18:45:57.775Z,96272.59
2023-04-23T18:48:06.135Z,96278.19
2023-04-23T18:50:10.255Z,96278.97
2023-04-23T18:52:13.311Z,96274.47
2023-04-23T18:54:17.658Z,96286.50
2023-04-23T18:56:20.511Z,96276.88
2023-04-23T18:58:25.603Z,96276.22
2023-04-23T19:00:28.785Z,96277.16
2023-04-23T19:02:35.549Z,96268.13
2023-04-23T19:04:39.096Z,96275.63
2023-04-23T19:06:42.599Z,96274.59
2023-04-23T19:08:45.524Z,96274.84
2023-04-23T19:10:48.329Z,96285.50
2023-04-23T19:12:51.135Z,96288.72
2023-04-23T19:14:55.469Z,96278.41
2023-04-23T19:16:58.259Z,96288.03
2023-04-23T19:19:01.434Z,96280.84
2023-04-23T19:21:04.802Z,96274.94
2023-04-23T19:23:09.076Z,96272.72
2023-04-23T19:25:12.259Z,96277.16
2023-04-23T19:27:15.165Z,96277.31
2023-04-23T19:29:20.051Z,96277.50
2023-04-23T19:31:24.319Z,96282.63
2023-04-23T19:33:27.203Z,96285.41
2023-04-23T19:35:30.006Z,96290.25
2023-04-23T19:37:33.202Z,96288.16
2023-04-23T19:39:36.040Z,96288.97
2023-04-23T19:41:38.941Z,96292.34
2023-04-23T19:43:41.666Z,96297.13
2023-04-23T19:45:46.357Z,96288.06
2023-04-23T19:47:51.266Z,96293.41
2023-04-23T19:49:54.428Z,96297.69
2023-04-23T19:51:59.147Z,96293.16
2023-04-23T19:54:03.248Z,96298.72
2023-04-23T19:56:12.720Z,96288.31
2023-04-23T19:58:18.252Z,96290.38
2023-04-23T20:00:24.222Z,96291.63
2023-04-23T20:02:30.336Z,96289.22
2023-04-23T20:04:37.282Z,96302.28
2023-04-23T20:06:43.452Z,96307.63
2023-04-23T20:09:06.254Z,96313.44
2023-04-23T20:11:13.340Z,96318.53
2023-04-23T20:13:19.206Z,96316.66
2023-04-23T20:15:26.241Z,96322.81
2023-04-23T20:17:31.369Z,96326.50
2023-04-23T20:19:36.744Z,96324.66
2023-04-23T20:21:40.532Z,96315.06
2023-04-23T20:23:43.407Z,96315.06
2023-04-23T20:25:48.135Z,96313.91
2023-04-23T20:27:51.710Z,96311.50
2023-04-23T20:29:55.362Z,96309.63
2023-04-23T20:31:59.165Z,96306.97
2023-04-23T20:34:02.208Z,96314.97
2023-04-23T20:36:09.803Z,96305.13
2023-04-23T20:38:19.188Z,96314.72
2023-04-23T20:40:22.684Z,96309.84
2023-04-23T20:42:28.950Z,96310.31
2023-04-23T20:44:32.158Z,96299.09
2023-04-23T20:46:36.545Z,96298.28
2023-04-23T20:48:39.879Z,96305.81
2023-04-23T20:50:42.789Z,96302.56
2023-04-23T20:52:47.122Z,96299.34
2023-04-23T20:54:50.030Z,96295.63
2023-04-23T20:56:54.378Z,96300.16
2023-04-23T20:58:57.929Z,96285.44
2023-04-23T21:01:00.813Z,96287.75
2023-04-23T21:03:03.767Z,96297.16
2023-04-23T21:05:07.885Z,96294.25
2023-04-23T21:07:10.848Z,96294.50
2023-04-23T21:09:14.969Z,96296.09
2023-04-23T21:11:19.390Z,96294.50
2023-04-23T21:13:22.343Z,96292.19
2023-04-23T21:15:25.404Z,96292.66
2023-04-23T21:17:28.256Z,96296.56
2023-04-23T21:19:31.087Z,96291.00
2023-04-23T21:21:33.973Z,96289.88
2023-04-23T21:23:37.106Z,96294.72
2023-04-23T21:25:41.380Z,96292.44
2023-04-23T21:27:47.255Z,96289.28
2023-04-23T21:29:51.496Z,96302.69
2023-04-23T21:31:54.604Z,96301.44
2023-04-23T21:33:57.387Z,96291.81
2023-04-23T21:36:00.222Z,96294.94
2023-04-23T21:38:03.004Z,96295.41
2023-04-23T21:40:07.149Z,96293.31
2023-04-23T22:16:26.803Z,96282.34
2023-04-23T22:18:34.242Z,96283.78
2023-04-23T22:20:38.199Z,96275.28
2023-04-23T22:22:42.873Z,96281.63
2023-04-23T22:24:45.844Z,96280.50
2023-04-23T22:26:51.842Z,96281.56
2023-04-23T22:28:54.724Z,96287.13
2023-04-23T22:31:00.583Z,96283.56
2023-04-23T22:33:07.450Z,96287.25
2023-04-23T22:35:11.113Z,96276.47
2023-04-23T22:37:14.062Z,96281.56
2023-04-23T22:39:16.951Z,96284.88
2023-04-23T22:41:19.859Z,96290.91
2023-04-23T22:43:22.635Z,96290.47
2023-04-23T22:45:25.411Z,96296.28
2023-04-23T22:47:28.532Z,96300.91
2023-04-23T22:49:32.541Z,96297.75
2023-04-23T22:51:38.742Z,96302.00
2023-04-23T22:53:41.888Z,96278.94
2023-04-23T22:55:44.759Z,96276.03
2023-04-23T22:57:47.556Z,96281.19
2023-04-23T22:59:50.620Z,96280.34
2023-04-23T23:01:53.725Z,96279.78
2023-04-23T23:03:56.959Z,96277.72
2023-04-23T23:06:01.190Z,96283.19
2023-04-23T23:08:03.730Z,96284.78
2023-04-23T23:10:08.726Z,96299.72
2023-04-23T23:12:11.583Z,96313.97
2023-04-23T23:14:14.552Z,96303.03
2023-04-23T23:16:17.526Z,96297.59
2023-04-23T23:18:20.430Z,96304.53
2023-04-23T23:20:23.215Z,96300.56
2023-04-23T23:22:28.931Z,96294.97
2023-04-23T23:24:31.813Z,96290.84
2023-04-23T23:26:34.765Z,96287.28
2023-04-23T23:28:37.608Z,96289.81
2023-04-23T23:30:40.396Z,96285.38
2023-04-23T23:32:43.320Z,96288.78
2023-04-23T23:34:46.217Z,96291.56
2023-04-23T23:36:51.058Z,96289.06
2023-04-23T23:38:55.377Z,96293.47
2023-04-23T23:40:58.146Z,96299.41
2023-04-23T23:43:01.103Z,96291.03
2023-04-23T23:45:04.058Z,96288.63
2023-04-23T23:47:07.235Z,96288.97
2023-04-23T23:49:10.203Z,96294.22
2023-04-23T23:51:13.481Z,96306.00
2023-04-23T23:53:16.407Z,96293.63
2023-04-23T23:55:21.325Z,96292.44
2023-04-23T23:57:24.292Z,96292.09
2023-04-23T23:59:27.397Z,96299.84
